»·PEaware :: N226DL KBUR-KLAS

N226DL :: KBUR-KLAS

FLIGHT INFORMATION

Flight Status: Arrived
Operator: Privately registered:
United States
More flights under this callsign
Pilot: Stephen S. (24379)
Aircraft: MOONEY M-20 201 202 205 220 ATS MSE
(M20P)
More flights by this aircraft type
Origin: KBUR Bob Hope-Burbank
United States
Destination: KLAS McCarran Intl
United States
More flights between these airports :: More routes between these airports
Route: +VNY3 DAG CRESO4
File this flight plan on PilotEdge
Remarks:
Altitude:
(Current/Filed)
11,000ft
Speed:
(Current/Filed)
150kts
Departed: 21-Nov-20 10:56 AM
Arrived: 21-Nov-20 12:15 PM
Distance/Time
Traveled:
193nm/1:19
Distance/Time
To Go:
Arrived

Flight Plot

Page will automatically refresh every two minutes.

Flight plan parsing failed; only flown route is shown


Map Options




Map Legend


Flown Route
Filed Route
Departure Airport
Arrival Airport
Navaid (VOR, NDB)
Fix

Horizontal Profiles

Position Reports

Time Latitude Longitude Heading Altitude Ground
Speed
21-Nov-20 10:34 34.200261 -118.362794 0 776ft 0kts
21-Nov-20 10:35 34.200261 -118.362794 220 776ft 0kts
21-Nov-20 10:37 34.200261 -118.362794 220 776ft 0kts
21-Nov-20 10:37 34.200261 -118.362794 220 776ft 0kts
21-Nov-20 10:39 34.200261 -118.362794 220 776ft 0kts
21-Nov-20 10:39 34.200261 -118.362794 220 776ft 0kts
21-Nov-20 10:41 34.200261 -118.362794 220 776ft 0kts
21-Nov-20 10:41 34.200261 -118.362794 220 776ft 0kts
21-Nov-20 10:42 34.200261 -118.362794 220 776ft 0kts
21-Nov-20 10:43 34.200261 -118.362794 220 776ft 0kts
21-Nov-20 10:44 34.200261 -118.362794 220 776ft 0kts
21-Nov-20 10:45 34.200261 -118.362794 220 776ft 0kts
21-Nov-20 10:46 34.200261 -118.362794 220 776ft 0kts
21-Nov-20 10:47 34.200261 -118.362794 220 776ft 0kts
21-Nov-20 10:48 34.200261 -118.362794 220 776ft 0kts
21-Nov-20 10:49 34.200261 -118.362794 220 776ft 0kts
21-Nov-20 10:50 34.200151 -118.363036 259 776ft 4kts
21-Nov-20 10:51 34.199491 -118.364528 181 776ft 9kts
21-Nov-20 10:52 34.199132 -118.368474 264 776ft 5kts
21-Nov-20 10:53 34.198772 -118.368998 182 776ft 0kts
21-Nov-20 10:54 34.198772 -118.368998 182 776ft 0kts
21-Nov-20 10:55 34.197867 -118.365508 91 776ft 64kts
21-Nov-20 10:56 34.190450 -118.337034 175 1846ft 107kts
21-Nov-20 10:57 34.167483 -118.359572 224 3129ft 112kts
21-Nov-20 10:58 34.142449 -118.387569 225 4159ft 128kts
21-Nov-20 10:59 34.115910 -118.416600 225 5166ft 128kts
21-Nov-20 11:00 34.089392 -118.444771 225 6175ft 123kts
21-Nov-20 11:01 34.102493 -118.466746 351 7177ft 109kts
21-Nov-20 11:02 34.131850 -118.468827 351 8131ft 104kts
21-Nov-20 11:03 34.161212 -118.470260 351 8988ft 112kts
21-Nov-20 11:04 34.195318 -118.471836 352 9824ft 128kts
21-Nov-20 11:05 34.231753 -118.473180 352 10721ft 131kts
21-Nov-20 11:06 34.271858 -118.474651 352 11055ft 164kts
21-Nov-20 11:07 34.320719 -118.477504 352 11037ft 181kts
21-Nov-20 11:08 34.372177 -118.480777 352 11019ft 186kts
21-Nov-20 11:09 34.424449 -118.484163 352 11013ft 186kts
21-Nov-20 11:10 34.476370 -118.487509 352 11032ft 186kts
21-Nov-20 11:11 34.528239 -118.490831 352 11049ft 185kts
21-Nov-20 11:12 34.580329 -118.493804 0 11068ft 188kts
21-Nov-20 11:13 34.600417 -118.438058 84 11122ft 199kts
21-Nov-20 11:14 34.605991 -118.370691 84 11165ft 199kts
21-Nov-20 11:15 34.611675 -118.303195 84 11199ft 200kts
21-Nov-20 11:16 34.617341 -118.235533 84 11200ft 201kts
21-Nov-20 11:17 34.623020 -118.167252 84 11200ft 201kts
21-Nov-20 11:18 34.628656 -118.099008 84 11201ft 202kts
21-Nov-20 11:19 34.634932 -118.030969 82 11199ft 202kts
21-Nov-20 11:20 34.642609 -117.962966 82 11197ft 202kts
21-Nov-20 11:21 34.650059 -117.894812 82 11194ft 202kts
21-Nov-20 11:22 34.657448 -117.826750 82 11190ft 202kts
21-Nov-20 11:23 34.665646 -117.758831 75 11177ft 202kts
21-Nov-20 11:24 34.682341 -117.692987 72 11171ft 202kts
21-Nov-20 11:25 34.699267 -117.627186 72 11172ft 202kts
21-Nov-20 11:26 34.716110 -117.561347 72 11180ft 202kts
21-Nov-20 11:27 34.732857 -117.495717 72 11184ft 202kts
21-Nov-20 11:28 34.749813 -117.429095 72 11010ft 210kts
21-Nov-20 11:29 34.766891 -117.361808 72 11002ft 205kts
21-Nov-20 11:30 34.783672 -117.295543 72 10999ft 203kts
21-Nov-20 11:31 34.800325 -117.229612 72 10999ft 202kts
21-Nov-20 11:32 34.816946 -117.163638 72 10999ft 202kts
21-Nov-20 11:33 34.833488 -117.097802 72 11002ft 202kts
21-Nov-20 11:34 34.850000 -117.031924 72 11001ft 201kts
21-Nov-20 11:35 34.866401 -116.966313 72 11000ft 201kts
21-Nov-20 11:36 34.882729 -116.900832 72 11000ft 200kts
21-Nov-20 11:37 34.899008 -116.835382 72 11000ft 199kts
21-Nov-20 11:38 34.915134 -116.770380 72 11000ft 199kts
21-Nov-20 11:39 34.931197 -116.705464 72 11001ft 199kts
21-Nov-20 11:40 34.947363 -116.639968 72 11001ft 199kts
21-Nov-20 11:41 34.964178 -116.575314 64 11001ft 198kts
21-Nov-20 11:42 34.990410 -116.515471 59 11001ft 197kts
21-Nov-20 11:43 35.016958 -116.455849 59 11010ft 197kts
21-Nov-20 11:44 35.043455 -116.396113 59 11010ft 196kts
21-Nov-20 11:45 35.069675 -116.336910 59 11008ft 196kts
21-Nov-20 11:46 35.095720 -116.278011 59 11008ft 195kts
21-Nov-20 11:47 35.121801 -116.218914 59 11008ft 195kts
21-Nov-20 11:48 35.147841 -116.159808 59 11008ft 195kts
21-Nov-20 11:49 35.173849 -116.100676 59 11008ft 195kts
21-Nov-20 11:50 35.199799 -116.041567 59 11009ft 195kts
21-Nov-20 11:51 35.225772 -115.982305 59 11009ft 196kts
21-Nov-20 11:52 35.251762 -115.922899 59 11009ft 196kts
21-Nov-20 11:53 35.277655 -115.863610 59 11015ft 195kts
21-Nov-20 11:54 35.303741 -115.803775 59 11022ft 196kts
21-Nov-20 11:55 35.337268 -115.751489 44 11028ft 193kts
21-Nov-20 11:56 35.374212 -115.702594 44 11034ft 194kts
21-Nov-20 11:57 35.410913 -115.653605 44 11037ft 194kts
21-Nov-20 11:58 35.447740 -115.604381 44 11037ft 194kts
21-Nov-20 11:59 35.484461 -115.555229 44 11037ft 194kts
21-Nov-20 12:00 35.521246 -115.505925 44 11037ft 194kts
21-Nov-20 12:01 35.558156 -115.456415 44 11037ft 194kts
21-Nov-20 12:02 35.595108 -115.406770 44 11038ft 194kts
21-Nov-20 12:03 35.631818 -115.357379 44 11038ft 194kts
21-Nov-20 12:04 35.672010 -115.314465 12 10930ft 192kts
21-Nov-20 12:05 35.725956 -115.296341 11 10216ft 202kts
21-Nov-20 12:06 35.779585 -115.278563 11 9242ft 191kts
21-Nov-20 12:07 35.830335 -115.261936 12 8221ft 183kts
21-Nov-20 12:08 35.879508 -115.246321 12 7203ft 179kts
21-Nov-20 12:09 35.925010 -115.232155 11 7034ft 160kts
21-Nov-20 12:11 35.968870 -115.218468 11 7014ft 162kts
21-Nov-20 12:12 36.014035 -115.203623 15 5136ft 171kts
21-Nov-20 12:13 36.049468 -115.185099 24 2916ft 97kts
21-Nov-20 12:14 36.071639 -115.172586 24 2362ft 79kts
21-Nov-20 12:15 36.082267 -115.167225 317 2183ft 16kts
21-Nov-20 12:16 36.082576 -115.167661 291 2183ft 10kts
21-Nov-20 12:17 36.085549 -115.167695 289 2183ft 0kts

Navigation Log

Ident Type
Flight plan parsing failed, navigation log unavailable